sensor_id;sensor_type;location;lat;lon;timestamp;pressure;altitude;pressure_sealevel;temperature;humidity
61900;BME280;47853;55.890;37.664;2023-07-08T00:00:48;99175.22;;;25.58;100.00
61900;BME280;47853;55.890;37.664;2023-07-08T00:03:14;99158.91;;;25.27;100.00
61900;BME280;47853;55.890;37.664;2023-07-08T00:05:40;99160.00;;;25.37;100.00
61900;BME280;47853;55.890;37.664;2023-07-08T00:08:09;99159.72;;;25.33;100.00
61900;BME280;47853;55.890;37.664;2023-07-08T00:10:36;99168.41;;;25.25;100.00
61900;BME280;47853;55.890;37.664;2023-07-08T00:13:02;99163.25;;;25.28;100.00
61900;BME280;47853;55.890;37.664;2023-07-08T00:15:29;99172.22;;;25.18;100.00
61900;BME280;47853;55.890;37.664;2023-07-08T00:17:55;99184.97;;;25.13;100.00
61900;BME280;47853;55.890;37.664;2023-07-08T00:20:26;99174.13;;;25.23;100.00
61900;BME280;47853;55.890;37.664;2023-07-08T00:22:53;99172.47;;;25.17;100.00
61900;BME280;47853;55.890;37.664;2023-07-08T00:25:18;99176.47;;;24.78;100.00
61900;BME280;47853;55.890;37.664;2023-07-08T00:27:44;99182.75;;;24.89;100.00
61900;BME280;47853;55.890;37.664;2023-07-08T00:30:18;99175.94;;;24.76;100.00
61900;BME280;47853;55.890;37.664;2023-07-08T00:32:44;99175.16;;;24.86;100.00
61900;BME280;47853;55.890;37.664;2023-07-08T00:35:09;99179.22;;;24.88;100.00
61900;BME280;47853;55.890;37.664;2023-07-08T00:37:34;99176.75;;;24.76;100.00
61900;BME280;47853;55.890;37.664;2023-07-08T00:40:00;99176.66;;;24.56;100.00
61900;BME280;47853;55.890;37.664;2023-07-08T00:42:25;99186.78;;;24.76;100.00
61900;BME280;47853;55.890;37.664;2023-07-08T00:44:51;99185.91;;;24.65;100.00
61900;BME280;47853;55.890;37.664;2023-07-08T00:47:16;99191.31;;;24.65;100.00
61900;BME280;47853;55.890;37.664;2023-07-08T00:49:50;99197.16;;;24.31;100.00
61900;BME280;47853;55.890;37.664;2023-07-08T00:52:25;99200.25;;;24.02;100.00
61900;BME280;47853;55.890;37.664;2023-07-08T00:54:51;99204.78;;;24.34;100.00
61900;BME280;47853;55.890;37.664;2023-07-08T00:57:17;99196.13;;;24.37;100.00
61900;BME280;47853;55.890;37.664;2023-07-08T00:59:50;99189.06;;;24.41;100.00
61900;BME280;47853;55.890;37.664;2023-07-08T01:02:19;99188.38;;;24.67;100.00
61900;BME280;47853;55.890;37.664;2023-07-08T01:05:08;99195.63;;;24.56;100.00
61900;BME280;47853;55.890;37.664;2023-07-08T01:07:36;99191.31;;;24.65;100.00
61900;BME280;47853;55.890;37.664;2023-07-08T01:10:07;99181.19;;;24.45;100.00
61900;BME280;47853;55.890;37.664;2023-07-08T01:12:37;99200.88;;;24.19;100.00
61900;BME280;47853;55.890;37.664;2023-07-08T01:15:06;99181.16;;;24.29;100.00
61900;BME280;47853;55.890;37.664;2023-07-08T01:17:32;99183.94;;;24.50;100.00
61900;BME280;47853;55.890;37.664;2023-07-08T01:20:01;99201.94;;;24.72;100.00
61900;BME280;47853;55.890;37.664;2023-07-08T01:22:26;99192.13;;;24.55;100.00
61900;BME280;47853;55.890;37.664;2023-07-08T01:24:52;99187.88;;;24.80;100.00
61900;BME280;47853;55.890;37.664;2023-07-08T01:27:18;99201.78;;;24.99;100.00
61900;BME280;47853;55.890;37.664;2023-07-08T01:29:45;99199.59;;;24.32;100.00
61900;BME280;47853;55.890;37.664;2023-07-08T01:32:12;99188.44;;;24.29;100.00
61900;BME280;47853;55.890;37.664;2023-07-08T01:34:38;99196.94;;;24.43;100.00
61900;BME280;47853;55.890;37.664;2023-07-08T01:37:04;99186.41;;;24.52;100.00
61900;BME280;47853;55.890;37.664;2023-07-08T01:39:31;99200.47;;;24.43;100.00
61900;BME280;47853;55.890;37.664;2023-07-08T01:41:57;99208.13;;;24.52;100.00
61900;BME280;47853;55.890;37.664;2023-07-08T01:44:30;99209.06;;;24.25;100.00
61900;BME280;47853;55.890;37.664;2023-07-08T01:46:58;99200.53;;;24.54;100.00
61900;BME280;47853;55.890;37.664;2023-07-08T01:49:25;99201.38;;;24.11;100.00
61900;BME280;47853;55.890;37.664;2023-07-08T01:51:52;99198.41;;;23.75;100.00
61900;BME280;47853;55.890;37.664;2023-07-08T01:54:17;99206.50;;;24.08;100.00
61900;BME280;47853;55.890;37.664;2023-07-08T01:56:42;99209.19;;;24.51;100.00
61900;BME280;47853;55.890;37.664;2023-07-08T01:59:08;99202.97;;;24.55;100.00
61900;BME280;47853;55.890;37.664;2023-07-08T02:01:33;99204.88;;;24.60;100.00
61900;BME280;47853;55.890;37.664;2023-07-08T02:03:58;99202.47;;;24.69;100.00
61900;BME280;47853;55.890;37.664;2023-07-08T02:06:24;99204.88;;;24.60;100.00
61900;BME280;47853;55.890;37.664;2023-07-08T02:08:49;99195.69;;;24.66;100.00
61900;BME280;47853;55.890;37.664;2023-07-08T02:11:15;99185.56;;;24.51;100.00
61900;BME280;47853;55.890;37.664;2023-07-08T02:13:40;99199.97;;;24.52;100.00
61900;BME280;47853;55.890;37.664;2023-07-08T02:16:06;99194.53;;;24.52;100.00
61900;BME280;47853;55.890;37.664;2023-07-08T02:18:32;99201.91;;;24.56;100.00
61900;BME280;47853;55.890;37.664;2023-07-08T02:20:57;99201.84;;;24.46;100.00
61900;BME280;47853;55.890;37.664;2023-07-08T02:23:25;99189.22;;;24.19;100.00
61900;BME280;47853;55.890;37.664;2023-07-08T02:25:52;99195.56;;;24.35;100.00
61900;BME280;47853;55.890;37.664;2023-07-08T02:28:17;99190.00;;;24.68;100.00
61900;BME280;47853;55.890;37.664;2023-07-08T02:30:42;99183.00;;;24.87;100.00
61900;BME280;47853;55.890;37.664;2023-07-08T02:33:08;99200.03;;;24.67;100.00
61900;BME280;47853;55.890;37.664;2023-07-08T02:35:33;99191.22;;;24.34;100.00
61900;BME280;47853;55.890;37.664;2023-07-08T02:37:58;99193.31;;;24.75;100.00
61900;BME280;47853;55.890;37.664;2023-07-08T02:40:25;99189.81;;;24.90;100.00
61900;BME280;47853;55.890;37.664;2023-07-08T02:42:50;99185.19;;;24.90;100.00
61900;BME280;47853;55.890;37.664;2023-07-08T02:45:17;99190.00;;;24.73;100.00
61900;BME280;47853;55.890;37.664;2023-07-08T02:47:42;99182.53;;;25.11;100.00
61900;BME280;47853;55.890;37.664;2023-07-08T02:50:09;99190.34;;;24.82;100.00
61900;BME280;47853;55.890;37.664;2023-07-08T02:52:35;99185.25;;;25.32;100.00
61900;BME280;47853;55.890;37.664;2023-07-08T02:55:01;99193.47;;;25.47;100.00
61900;BME280;47853;55.890;37.664;2023-07-08T02:57:26;99189.38;;;25.50;100.00
61900;BME280;47853;55.890;37.664;2023-07-08T02:59:52;99187.75;;;25.65;100.00
61900;BME280;47853;55.890;37.664;2023-07-08T03:02:17;99182.06;;;25.56;100.00
61900;BME280;47853;55.890;37.664;2023-07-08T03:04:43;99182.84;;;25.72;100.00
61900;BME280;47853;55.890;37.664;2023-07-08T03:07:08;99176.31;;;25.78;100.00
61900;BME280;47853;55.890;37.664;2023-07-08T03:09:34;99162.47;;;25.54;100.00
61900;BME280;47853;55.890;37.664;2023-07-08T03:11:59;99176.56;;;25.82;100.00
61900;BME280;47853;55.890;37.664;2023-07-08T03:14:24;99170.88;;;25.83;100.00
61900;BME280;47853;55.890;37.664;2023-07-08T03:16:50;99171.91;;;26.18;100.00
61900;BME280;47853;55.890;37.664;2023-07-08T03:19:15;99170.00;;;26.19;100.00
61900;BME280;47853;55.890;37.664;2023-07-08T03:21:41;99164.03;;;26.06;100.00
61900;BME280;47853;55.890;37.664;2023-07-08T03:24:09;99168.38;;;26.18;100.00
61900;BME280;47853;55.890;37.664;2023-07-08T03:26:35;99177.88;;;26.05;100.00
61900;BME280;47853;55.890;37.664;2023-07-08T03:29:00;99164.59;;;25.98;100.00
61900;BME280;47853;55.890;37.664;2023-07-08T03:31:26;99172.47;;;26.00;100.00
61900;BME280;47853;55.890;37.664;2023-07-08T03:33:51;99176.25;;;26.14;100.00
61900;BME280;47853;55.890;37.664;2023-07-08T03:36:17;99185.56;;;25.87;100.00
61900;BME280;47853;55.890;37.664;2023-07-08T03:38:43;99173.84;;;25.35;100.00
61900;BME280;47853;55.890;37.664;2023-07-08T03:41:08;99186.34;;;25.83;100.00
61900;BME280;47853;55.890;37.664;2023-07-08T03:43:33;99186.88;;;25.28;100.00
61900;BME280;47853;55.890;37.664;2023-07-08T03:45:59;99178.91;;;24.74;100.00
61900;BME280;47853;55.890;37.664;2023-07-08T03:48:24;99180.56;;;24.86;100.00
61900;BME280;47853;55.890;37.664;2023-07-08T03:50:49;99180.66;;;25.27;100.00
61900;BME280;47853;55.890;37.664;2023-07-08T03:53:15;99180.94;;;24.46;100.00
61900;BME280;47853;55.890;37.664;2023-07-08T03:55:40;99180.91;;;25.36;100.00
61900;BME280;47853;55.890;37.664;2023-07-08T03:58:05;99174.44;;;25.58;100.00
61900;BME280;47853;55.890;37.664;2023-07-08T04:00:34;99176.03;;;25.74;100.00
61900;BME280;47853;55.890;37.664;2023-07-08T04:02:59;99183.13;;;25.60;100.00
61900;BME280;47853;55.890;37.664;2023-07-08T04:05:24;99171.38;;;25.18;100.00
61900;BME280;47853;55.890;37.664;2023-07-08T04:07:50;99166.78;;;25.91;100.00
61900;BME280;47853;55.890;37.664;2023-07-08T04:10:15;99170.59;;;25.90;100.00
61900;BME280;47853;55.890;37.664;2023-07-08T04:12:41;99168.09;;;26.14;100.00
61900;BME280;47853;55.890;37.664;2023-07-08T04:15:08;99176.81;;;26.11;100.00
61900;BME280;47853;55.890;37.664;2023-07-08T04:17:45;99189.06;;;25.83;100.00
61900;BME280;47853;55.890;37.664;2023-07-08T04:20:14;99177.63;;;26.01;100.00
61900;BME280;47853;55.890;37.664;2023-07-08T04:22:40;99167.56;;;26.12;100.00
61900;BME280;47853;55.890;37.664;2023-07-08T04:25:05;99191.94;;;26.48;100.00
61900;BME280;47853;55.890;37.664;2023-07-08T04:27:31;99193.81;;;26.58;100.00
61900;BME280;47853;55.890;37.664;2023-07-08T04:29:57;99195.91;;;26.77;100.00
61900;BME280;47853;55.890;37.664;2023-07-08T04:32:23;99192.31;;;26.16;100.00
61900;BME280;47853;55.890;37.664;2023-07-08T04:34:48;99198.06;;;25.62;100.00
61900;BME280;47853;55.890;37.664;2023-07-08T04:37:14;99201.88;;;25.87;100.00
61900;BME280;47853;55.890;37.664;2023-07-08T04:39:39;99194.50;;;25.20;100.00
61900;BME280;47853;55.890;37.664;2023-07-08T04:42:04;99200.22;;;25.34;100.00
61900;BME280;47853;55.890;37.664;2023-07-08T04:44:30;99176.03;;;25.33;100.00
61900;BME280;47853;55.890;37.664;2023-07-08T04:46:56;99194.56;;;25.52;100.00
61900;BME280;47853;55.890;37.664;2023-07-08T04:49:22;99195.50;;;24.94;100.00
61900;BME280;47853;55.890;37.664;2023-07-08T04:51:48;99196.34;;;24.94;100.00
61900;BME280;47853;55.890;37.664;2023-07-08T04:54:14;99205.88;;;25.07;100.00
61900;BME280;47853;55.890;37.664;2023-07-08T04:56:40;99217.06;;;25.42;100.00
61900;BME280;47853;55.890;37.664;2023-07-08T04:59:08;99218.75;;;25.74;100.00
61900;BME280;47853;55.890;37.664;2023-07-08T05:01:33;99214.09;;;25.74;100.00
61900;BME280;47853;55.890;37.664;2023-07-08T05:03:59;99225.50;;;26.08;100.00
61900;BME280;47853;55.890;37.664;2023-07-08T05:06:24;99232.53;;;25.31;100.00
61900;BME280;47853;55.890;37.664;2023-07-08T05:08:50;99226.63;;;24.65;100.00
61900;BME280;47853;55.890;37.664;2023-07-08T05:11:15;99233.53;;;24.88;100.00
61900;BME280;47853;55.890;37.664;2023-07-08T05:13:40;99215.34;;;24.89;100.00
61900;BME280;47853;55.890;37.664;2023-07-08T05:16:06;99211.84;;;25.04;100.00
61900;BME280;47853;55.890;37.664;2023-07-08T05:18:31;99210.50;;;25.17;100.00
61900;BME280;47853;55.890;37.664;2023-07-08T05:20:56;99212.44;;;25.27;100.00
61900;BME280;47853;55.890;37.664;2023-07-08T05:23:22;99201.25;;;25.08;100.00
61900;BME280;47853;55.890;37.664;2023-07-08T05:25:47;99204.81;;;25.18;100.00
61900;BME280;47853;55.890;37.664;2023-07-08T05:28:13;99216.84;;;25.64;100.00
61900;BME280;47853;55.890;37.664;2023-07-08T05:30:40;99223.63;;;25.92;100.00
61900;BME280;47853;55.890;37.664;2023-07-08T05:33:06;99217.63;;;25.96;100.00
61900;BME280;47853;55.890;37.664;2023-07-08T05:35:31;99215.75;;;25.86;100.00
61900;BME280;47853;55.890;37.664;2023-07-08T05:37:56;99200.53;;;25.59;100.00
61900;BME280;47853;55.890;37.664;2023-07-08T05:40:22;99221.72;;;25.93;100.00
61900;BME280;47853;55.890;37.664;2023-07-08T05:42:47;99218.41;;;25.29;100.00
61900;BME280;47853;55.890;37.664;2023-07-08T05:45:12;99202.34;;;25.07;100.00
61900;BME280;47853;55.890;37.664;2023-07-08T05:47:38;99207.47;;;24.93;100.00
61900;BME280;47853;55.890;37.664;2023-07-08T05:50:04;99208.59;;;25.07;100.00
61900;BME280;47853;55.890;37.664;2023-07-08T05:52:29;99223.63;;;25.46;100.00
61900;BME280;47853;55.890;37.664;2023-07-08T05:54:54;99217.63;;;25.59;100.00
61900;BME280;47853;55.890;37.664;2023-07-08T05:57:20;99227.97;;;25.94;100.00
61900;BME280;47853;55.890;37.664;2023-07-08T05:59:45;99212.50;;;25.89;100.00
61900;BME280;47853;55.890;37.664;2023-07-08T06:02:12;99214.94;;;25.59;100.00
61900;BME280;47853;55.890;37.664;2023-07-08T06:04:38;99221.66;;;25.36;100.00
61900;BME280;47853;55.890;37.664;2023-07-08T06:07:04;99211.88;;;25.25;100.00
61900;BME280;47853;55.890;37.664;2023-07-08T06:09:29;99206.50;;;25.56;100.00
61900;BME280;47853;55.890;37.664;2023-07-08T06:11:54;99209.50;;;25.65;100.00
61900;BME280;47853;55.890;37.664;2023-07-08T06:14:20;99198.56;;;26.27;100.00
61900;BME280;47853;55.890;37.664;2023-07-08T06:16:45;99199.63;;;26.31;100.00
61900;BME280;47853;55.890;37.664;2023-07-08T06:19:10;99207.28;;;26.03;100.00
61900;BME280;47853;55.890;37.664;2023-07-08T06:21:36;99197.78;;;26.00;100.00
61900;BME280;47853;55.890;37.664;2023-07-08T06:24:01;99203.75;;;26.08;100.00
61900;BME280;47853;55.890;37.664;2023-07-08T06:26:27;99196.25;;;26.60;100.00
61900;BME280;47853;55.890;37.664;2023-07-08T06:28:52;99200.84;;;26.64;97.73
61900;BME280;47853;55.890;37.664;2023-07-08T06:31:18;99202.41;;;25.95;100.00
61900;BME280;47853;55.890;37.664;2023-07-08T06:33:43;99196.69;;;25.96;100.00
61900;BME280;47853;55.890;37.664;2023-07-08T06:36:08;99199.03;;;26.44;100.00
61900;BME280;47853;55.890;37.664;2023-07-08T06:38:34;99201.94;;;26.63;97.71
61900;BME280;47853;55.890;37.664;2023-07-08T06:40:59;99194.81;;;26.73;97.21
61900;BME280;47853;55.890;37.664;2023-07-08T06:43:25;99189.38;;;26.78;95.08
61900;BME280;47853;55.890;37.664;2023-07-08T06:45:50;99188.16;;;27.05;93.29
61900;BME280;47853;55.890;37.664;2023-07-08T06:48:15;99193.06;;;27.43;90.83
61900;BME280;47853;55.890;37.664;2023-07-08T06:50:48;99194.09;;;27.12;92.17
61900;BME280;47853;55.890;37.664;2023-07-08T06:53:14;99194.19;;;27.36;90.60
61900;BME280;47853;55.890;37.664;2023-07-08T06:55:40;99188.94;;;27.50;89.94
61900;BME280;47853;55.890;37.664;2023-07-08T06:58:05;99189.59;;;26.82;94.57
61900;BME280;47853;55.890;37.664;2023-07-08T07:00:31;99184.84;;;26.58;97.45
61900;BME280;47853;55.890;37.664;2023-07-08T07:02:56;99191.50;;;27.31;94.09
61900;BME280;47853;55.890;37.664;2023-07-08T07:05:21;99187.53;;;27.18;92.98
61900;BME280;47853;55.890;37.664;2023-07-08T07:07:47;99186.50;;;27.04;95.68
61900;BME280;47853;55.890;37.664;2023-07-08T07:10:12;99182.03;;;26.73;97.08
61900;BME280;47853;55.890;37.664;2023-07-08T07:12:37;99180.09;;;25.92;100.00
61900;BME280;47853;55.890;37.664;2023-07-08T07:15:04;99184.28;;;26.61;98.24
61900;BME280;47853;55.890;37.664;2023-07-08T07:17:29;99189.22;;;26.43;98.63
61900;BME280;47853;55.890;37.664;2023-07-08T07:19:55;99192.22;;;26.52;96.63
61900;BME280;47853;55.890;37.664;2023-07-08T07:22:20;99184.53;;;26.59;96.55
61900;BME280;47853;55.890;37.664;2023-07-08T07:24:46;99190.00;;;27.15;91.75
61900;BME280;47853;55.890;37.664;2023-07-08T07:27:11;99176.19;;;27.01;92.51
61900;BME280;47853;55.890;37.664;2023-07-08T07:29:46;99185.59;;;26.74;94.25
61900;BME280;47853;55.890;37.664;2023-07-08T07:32:13;99201.13;;;26.68;94.19
61900;BME280;47853;55.890;37.664;2023-07-08T07:34:39;99178.44;;;26.88;90.66
61900;BME280;47853;55.890;37.664;2023-07-08T07:37:05;99185.56;;;26.79;90.23
61900;BME280;47853;55.890;37.664;2023-07-08T07:39:31;99185.03;;;26.72;91.51
61900;BME280;47853;55.890;37.664;2023-07-08T07:41:56;99178.13;;;26.29;96.12
61900;BME280;47853;55.890;37.664;2023-07-08T07:44:22;99180.72;;;27.16;89.73
61900;BME280;47853;55.890;37.664;2023-07-08T07:46:47;99178.06;;;26.50;94.20
61900;BME280;47853;55.890;37.664;2023-07-08T07:49:13;99189.00;;;26.40;96.06
61900;BME280;47853;55.890;37.664;2023-07-08T07:51:38;99182.94;;;26.53;96.00
61900;BME280;47853;55.890;37.664;2023-07-08T07:54:04;99182.31;;;26.77;91.74
61900;BME280;47853;55.890;37.664;2023-07-08T07:56:29;99181.91;;;26.39;92.70
61900;BME280;47853;55.890;37.664;2023-07-08T07:58:54;99181.44;;;25.38;100.00
61900;BME280;47853;55.890;37.664;2023-07-08T08:01:20;99185.97;;;26.41;95.61
61900;BME280;47853;55.890;37.664;2023-07-08T08:03:45;99200.09;;;26.48;91.79
61900;BME280;47853;55.890;37.664;2023-07-08T08:06:11;99194.16;;;27.02;89.71
61900;BME280;47853;55.890;37.664;2023-07-08T08:08:36;99194.25;;;26.86;88.43
61900;BME280;47853;55.890;37.664;2023-07-08T08:11:01;99210.84;;;26.90;87.12
61900;BME280;47853;55.890;37.664;2023-07-08T08:13:27;99211.34;;;26.21;95.10
61900;BME280;47853;55.890;37.664;2023-07-08T08:15:59;99219.16;;;26.48;94.99
61900;BME280;47853;55.890;37.664;2023-07-08T08:18:25;99222.03;;;26.88;89.43
61900;BME280;47853;55.890;37.664;2023-07-08T08:20:51;99216.94;;;26.61;88.01
61900;BME280;47853;55.890;37.664;2023-07-08T08:23:16;99226.97;;;26.76;85.98
61900;BME280;47853;55.890;37.664;2023-07-08T08:25:41;99223.56;;;26.34;89.45
61900;BME280;47853;55.890;37.664;2023-07-08T08:28:07;99223.16;;;26.72;86.67
61900;BME280;47853;55.890;37.664;2023-07-08T08:30:32;99215.69;;;27.03;83.46
61900;BME280;47853;55.890;37.664;2023-07-08T08:32:59;99221.25;;;27.28;82.38
61900;BME280;47853;55.890;37.664;2023-07-08T08:35:26;99230.50;;;26.76;84.01
61900;BME280;47853;55.890;37.664;2023-07-08T08:37:51;99212.44;;;27.01;83.45
61900;BME280;47853;55.890;37.664;2023-07-08T08:40:18;99223.72;;;27.24;81.09
61900;BME280;47853;55.890;37.664;2023-07-08T08:45:14;99225.78;;;26.98;81.98
61900;BME280;47853;55.890;37.664;2023-07-08T08:47:44;99221.00;;;26.63;85.10
61900;BME280;47853;55.890;37.664;2023-07-08T08:53:11;99216.91;;;27.27;80.17
61900;BME280;47853;55.890;37.664;2023-07-08T08:55:37;99215.75;;;27.33;79.60
61900;BME280;47853;55.890;37.664;2023-07-08T09:00:48;99215.13;;;28.11;73.63
61900;BME280;47853;55.890;37.664;2023-07-08T09:03:17;99217.44;;;28.52;70.66
61900;BME280;47853;55.890;37.664;2023-07-08T09:05:46;99223.78;;;28.91;69.80
61900;BME280;47853;55.890;37.664;2023-07-08T09:08:16;99223.38;;;29.03;67.06
61900;BME280;47853;55.890;37.664;2023-07-08T09:10:47;99218.00;;;28.49;64.96
61900;BME280;47853;55.890;37.664;2023-07-08T09:13:24;99214.16;;;28.50;69.39
61900;BME280;47853;55.890;37.664;2023-07-08T09:16:18;99213.53;;;28.58;67.62
61900;BME280;47853;55.890;37.664;2023-07-08T09:24:41;99219.28;;;28.32;66.35
61900;BME280;47853;55.890;37.664;2023-07-08T09:27:08;99209.13;;;28.38;68.19
61900;BME280;47853;55.890;37.664;2023-07-08T09:29:33;99200.16;;;28.32;68.06
61900;BME280;47853;55.890;37.664;2023-07-08T09:32:01;99208.63;;;28.06;71.29
61900;BME280;47853;55.890;37.664;2023-07-08T09:34:41;99212.50;;;28.78;68.53
61900;BME280;47853;55.890;37.664;2023-07-08T09:39:48;99203.19;;;30.03;59.99
61900;BME280;47853;55.890;37.664;2023-07-08T09:42:15;99207.16;;;30.25;58.82
61900;BME280;47853;55.890;37.664;2023-07-08T09:44:40;99206.16;;;30.49;57.38
61900;BME280;47853;55.890;37.664;2023-07-08T09:47:22;99205.41;;;30.01;58.80
61900;BME280;47853;55.890;37.664;2023-07-08T09:49:48;99214.50;;;29.49;59.21
61900;BME280;47853;55.890;37.664;2023-07-08T09:52:13;99216.47;;;30.24;56.67
61900;BME280;47853;55.890;37.664;2023-07-08T09:54:40;99208.06;;;30.06;55.38
61900;BME280;47853;55.890;37.664;2023-07-08T09:57:17;99218.25;;;29.87;56.80
61900;BME280;47853;55.890;37.664;2023-07-08T09:59:49;99209.59;;;30.27;55.87
61900;BME280;47853;55.890;37.664;2023-07-08T10:02:32;99207.03;;;30.02;57.36
61900;BME280;47853;55.890;37.664;2023-07-08T10:05:01;99201.41;;;28.45;59.64
61900;BME280;47853;55.890;37.664;2023-07-08T10:07:29;99215.16;;;29.03;60.40
61900;BME280;47853;55.890;37.664;2023-07-08T10:09:57;99200.97;;;29.39;56.57
61900;BME280;47853;55.890;37.664;2023-07-08T10:12:23;99202.00;;;29.05;59.77
61900;BME280;47853;55.890;37.664;2023-07-08T10:14:52;99208.78;;;29.46;59.03
61900;BME280;47853;55.890;37.664;2023-07-08T10:17:20;99200.00;;;29.11;61.76
61900;BME280;47853;55.890;37.664;2023-07-08T10:19:46;99210.81;;;29.73;59.59
61900;BME280;47853;55.890;37.664;2023-07-08T10:22:33;99204.09;;;30.13;55.16
61900;BME280;47853;55.890;37.664;2023-07-08T10:31:10;99194.97;;;30.45;53.22
61900;BME280;47853;55.890;37.664;2023-07-08T10:41:22;99192.56;;;29.83;52.19
61900;BME280;47853;55.890;37.664;2023-07-08T10:55:11;99201.88;;;30.57;48.56
61900;BME280;47853;55.890;37.664;2023-07-08T11:06:24;99201.75;;;34.03;37.34
61900;BME280;47853;55.890;37.664;2023-07-08T11:08:57;99194.63;;;33.10;39.63
61900;BME280;47853;55.890;37.664;2023-07-08T11:14:06;99196.31;;;29.73;51.38
61900;BME280;47853;55.890;37.664;2023-07-08T11:16:52;99196.47;;;29.29;56.75
61900;BME280;47853;55.890;37.664;2023-07-08T11:19:27;99200.81;;;30.94;50.81
61900;BME280;47853;55.890;37.664;2023-07-08T11:21:57;99196.13;;;29.83;52.29
61900;BME280;47853;55.890;37.664;2023-07-08T11:27:07;99198.03;;;31.22;46.84
61900;BME280;47853;55.890;37.664;2023-07-08T11:29:40;99202.41;;;31.09;46.37
61900;BME280;47853;55.890;37.664;2023-07-08T11:32:12;99191.72;;;31.99;43.99
61900;BME280;47853;55.890;37.664;2023-07-08T11:34:41;99194.69;;;32.11;41.75
61900;BME280;47853;55.890;37.664;2023-07-08T11:37:07;99196.88;;;33.08;40.57
61900;BME280;47853;55.890;37.664;2023-07-08T11:39:39;99196.59;;;32.43;41.34
61900;BME280;47853;55.890;37.664;2023-07-08T11:42:37;99202.00;;;30.37;46.14
61900;BME280;47853;55.890;37.664;2023-07-08T11:45:11;99191.63;;;31.59;43.45
61900;BME280;47853;55.890;37.664;2023-07-08T11:47:44;99201.38;;;31.88;42.61
61900;BME280;47853;55.890;37.664;2023-07-08T11:50:31;99204.00;;;31.24;44.12
61900;BME280;47853;55.890;37.664;2023-07-08T11:53:11;99208.19;;;31.08;41.86
61900;BME280;47853;55.890;37.664;2023-07-08T11:55:47;99196.56;;;30.88;42.99
61900;BME280;47853;55.890;37.664;2023-07-08T11:58:29;99215.47;;;28.04;51.62
61900;BME280;47853;55.890;37.664;2023-07-08T12:01:05;99208.16;;;26.79;60.21
61900;BME280;47853;55.890;37.664;2023-07-08T12:03:55;99205.91;;;26.05;63.75
61900;BME280;47853;55.890;37.664;2023-07-08T12:08:57;99211.25;;;24.86;76.75
61900;BME280;47853;55.890;37.664;2023-07-08T12:11:34;99199.72;;;25.74;74.78
61900;BME280;47853;55.890;37.664;2023-07-08T12:14:03;99209.72;;;25.32;77.45
61900;BME280;47853;55.890;37.664;2023-07-08T12:16:30;99203.25;;;25.48;76.74
61900;BME280;47853;55.890;37.664;2023-07-08T12:18:57;99202.97;;;25.55;74.79
61900;BME280;47853;55.890;37.664;2023-07-08T12:21:25;99205.63;;;25.14;77.57
61900;BME280;47853;55.890;37.664;2023-07-08T12:23:51;99213.31;;;25.79;72.26
61900;BME280;47853;55.890;37.664;2023-07-08T12:26:16;99211.66;;;25.52;72.77
61900;BME280;47853;55.890;37.664;2023-07-08T12:28:42;99211.09;;;25.34;73.96
61900;BME280;47853;55.890;37.664;2023-07-08T12:31:21;99206.19;;;25.37;74.66
61900;BME280;47853;55.890;37.664;2023-07-08T12:33:48;99193.47;;;25.53;74.50
61900;BME280;47853;55.890;37.664;2023-07-08T12:36:21;99198.88;;;25.78;72.01
61900;BME280;47853;55.890;37.664;2023-07-08T12:38:48;99198.88;;;25.99;72.13
61900;BME280;47853;55.890;37.664;2023-07-08T12:43:46;99193.97;;;26.88;67.26
61900;BME280;47853;55.890;37.664;2023-07-08T12:46:14;99183.91;;;25.40;72.56
61900;BME280;47853;55.890;37.664;2023-07-08T12:48:40;99187.81;;;26.61;69.55
61900;BME280;47853;55.890;37.664;2023-07-08T12:51:12;99173.03;;;26.78;66.18
61900;BME280;47853;55.890;37.664;2023-07-08T12:53:40;99176.31;;;27.60;60.26
61900;BME280;47853;55.890;37.664;2023-07-08T12:56:05;99171.41;;;26.77;63.54
61900;BME280;47853;55.890;37.664;2023-07-08T12:58:36;99179.91;;;26.65;65.55
61900;BME280;47853;55.890;37.664;2023-07-08T13:01:05;99181.91;;;26.39;67.28
61900;BME280;47853;55.890;37.664;2023-07-08T13:03:34;99185.56;;;26.79;65.50
61900;BME280;47853;55.890;37.664;2023-07-08T13:06:02;99175.19;;;27.66;60.31
61900;BME280;47853;55.890;37.664;2023-07-08T13:08:33;99182.50;;;27.71;59.49
61900;BME280;47853;55.890;37.664;2023-07-08T13:10:59;99194.72;;;28.03;56.71
61900;BME280;47853;55.890;37.664;2023-07-08T13:13:32;99182.59;;;26.70;61.33
61900;BME280;47853;55.890;37.664;2023-07-08T13:15:59;99183.41;;;26.76;62.93
61900;BME280;47853;55.890;37.664;2023-07-08T13:18:33;99191.88;;;26.64;58.02
61900;BME280;47853;55.890;37.664;2023-07-08T13:21:00;99184.19;;;25.74;60.13
61900;BME280;47853;55.890;37.664;2023-07-08T13:23:27;99183.94;;;25.71;58.31
61900;BME280;47853;55.890;37.664;2023-07-08T13:25:53;99188.63;;;27.12;53.70
61900;BME280;47853;55.890;37.664;2023-07-08T13:28:25;99176.91;;;26.61;53.32
61900;BME280;47853;55.890;37.664;2023-07-08T13:31:01;99175.19;;;26.86;54.68
61900;BME280;47853;55.890;37.664;2023-07-08T13:33:31;99179.88;;;27.60;51.78
61900;BME280;47853;55.890;37.664;2023-07-08T13:35:57;99183.06;;;27.97;48.69
61900;BME280;47853;55.890;37.664;2023-07-08T13:38:25;99166.78;;;27.23;49.47
61900;BME280;47853;55.890;37.664;2023-07-08T13:40:55;99168.94;;;27.26;49.14
61900;BME280;47853;55.890;37.664;2023-07-08T13:43:27;99169.47;;;27.28;49.02
61900;BME280;47853;55.890;37.664;2023-07-08T13:45:52;99174.34;;;27.31;51.84
61900;BME280;47853;55.890;37.664;2023-07-08T13:48:26;99175.78;;;27.58;51.64